createdAt,value
2016-11-21T00:00:04.796Z,0
2016-11-21T00:01:04.794Z,0
2016-11-21T00:02:04.804Z,0
2016-11-21T00:03:04.776Z,0
2016-11-21T00:04:04.763Z,0
2016-11-21T00:05:04.759Z,0
2016-11-21T00:06:04.751Z,0
2016-11-21T00:07:04.745Z,0
2016-11-21T00:08:05.028Z,0
2016-11-21T00:09:05.027Z,0
2016-11-21T00:10:04.708Z,0
2016-11-21T00:11:05.010Z,0
2016-11-21T00:12:04.700Z,0
2016-11-21T00:13:04.687Z,0
2016-11-21T00:14:04.680Z,0
2016-11-21T00:15:04.666Z,0
2016-11-21T00:16:04.659Z,0
2016-11-21T00:17:04.651Z,0
2016-11-21T00:18:04.645Z,0
2016-11-21T00:19:04.632Z,0
2016-11-21T00:20:04.624Z,0
2016-11-21T00:21:04.614Z,0
2016-11-21T00:22:04.606Z,0
2016-11-21T00:23:04.603Z,0
2016-11-21T00:24:04.581Z,0
2016-11-21T00:25:04.580Z,0
2016-11-21T00:26:04.569Z,0
2016-11-21T00:27:04.570Z,0
2016-11-21T00:28:04.550Z,0
2016-11-21T00:29:04.545Z,0
2016-11-21T00:30:04.843Z,0
2016-11-21T00:31:04.523Z,0
2016-11-21T00:32:04.833Z,0
2016-11-21T00:33:04.507Z,0
2016-11-21T00:34:04.498Z,0
2016-11-21T00:35:04.488Z,0
2016-11-21T00:36:04.483Z,0
2016-11-21T00:37:04.473Z,0
2016-11-21T00:38:04.463Z,0
2016-11-21T00:39:04.451Z,0
2016-11-21T00:40:04.470Z,0
2016-11-21T00:41:04.432Z,0
2016-11-21T00:42:04.432Z,0
2016-11-21T00:43:04.426Z,0
2016-11-21T00:44:04.414Z,0
2016-11-21T00:45:04.403Z,0
2016-11-21T00:46:04.404Z,0
2016-11-21T00:47:04.389Z,0
2016-11-21T00:48:04.378Z,0
2016-11-21T00:49:04.367Z,0
2016-11-21T00:50:04.358Z,0
2016-11-21T00:51:04.347Z,0
2016-11-21T00:52:04.336Z,0
2016-11-21T00:53:04.328Z,0
2016-11-21T00:54:04.934Z,0
2016-11-21T00:55:04.314Z,0
2016-11-21T00:56:04.306Z,0
2016-11-21T00:57:04.324Z,0
2016-11-21T00:58:04.315Z,0
2016-11-21T00:59:04.276Z,0
2016-11-21T01:00:04.267Z,0
2016-11-21T01:01:04.273Z,0
2016-11-21T01:02:04.244Z,0
2016-11-21T01:03:04.241Z,0
2016-11-21T01:04:04.237Z,0
2016-11-21T01:05:04.233Z,0
2016-11-21T01:06:04.212Z,0
2016-11-21T01:07:04.210Z,0
2016-11-21T01:08:04.190Z,0
2016-11-21T01:09:04.201Z,0
2016-11-21T01:10:04.188Z,0
2016-11-21T01:11:04.173Z,0
2016-11-21T01:12:04.172Z,0
2016-11-21T01:13:04.155Z,0
2016-11-21T01:14:04.142Z,0
2016-11-21T01:15:04.135Z,0
2016-11-21T01:16:04.129Z,0
2016-11-21T01:17:04.123Z,0
2016-11-21T01:18:04.110Z,0
2016-11-21T01:19:04.102Z,0
2016-11-21T01:20:04.090Z,0
2016-11-21T01:21:04.082Z,0
2016-11-21T01:22:04.074Z,0
2016-11-21T01:23:04.375Z,0
2016-11-21T01:24:04.060Z,0
2016-11-21T01:25:04.044Z,0
2016-11-21T01:26:04.031Z,0
2016-11-21T01:27:04.030Z,0
2016-11-21T01:28:04.018Z,0
2016-11-21T01:29:04.007Z,0
2016-11-21T01:30:04.010Z,0
2016-11-21T01:31:03.995Z,0
2016-11-21T01:32:03.980Z,0
2016-11-21T01:33:03.985Z,0
2016-11-21T01:34:03.966Z,0
2016-11-21T01:35:03.965Z,0
2016-11-21T01:36:03.952Z,0
2016-11-21T01:37:03.935Z,0
2016-11-21T01:38:03.935Z,0
2016-11-21T01:39:03.923Z,0
2016-11-21T01:40:03.914Z,0
2016-11-21T01:41:03.905Z,0
2016-11-21T01:42:03.905Z,0
2016-11-21T01:43:03.882Z,0
2016-11-21T01:44:03.885Z,0
2016-11-21T01:45:03.866Z,0
2016-11-21T01:46:03.860Z,0
2016-11-21T01:47:03.858Z,0
2016-11-21T01:48:03.841Z,0
2016-11-21T01:49:03.839Z,0
2016-11-21T01:50:03.825Z,0
2016-11-21T01:51:03.814Z,0
2016-11-21T01:52:03.816Z,0
2016-11-21T01:53:03.799Z,0
2016-11-21T01:54:03.789Z,0
2016-11-21T01:55:03.776Z,0
2016-11-21T01:56:03.771Z,0
2016-11-21T01:57:03.759Z,0
2016-11-21T01:58:03.757Z,0
2016-11-21T01:59:03.750Z,0
2016-11-21T02:00:03.740Z,0
2016-11-21T02:01:03.726Z,0
2016-11-21T02:02:03.724Z,0
2016-11-21T02:03:03.717Z,0
2016-11-21T02:04:03.700Z,0
2016-11-21T02:05:03.688Z,0
2016-11-21T02:06:03.688Z,0
2016-11-21T02:07:03.673Z,0
2016-11-21T02:08:03.684Z,0
2016-11-21T02:09:03.654Z,0
2016-11-21T02:10:03.639Z,0
2016-11-21T02:11:03.636Z,0
2016-11-21T02:12:03.934Z,0
2016-11-21T02:13:03.618Z,0
2016-11-21T02:14:03.605Z,0
2016-11-21T02:15:03.595Z,0
2016-11-21T02:16:03.587Z,0
2016-11-21T02:17:03.586Z,0
2016-11-21T02:18:03.916Z,0
2016-11-21T02:19:03.567Z,0
2016-11-21T02:20:03.556Z,0
2016-11-21T02:21:03.547Z,0
2016-11-21T02:22:03.536Z,0
2016-11-21T02:23:03.526Z,0
2016-11-21T02:24:03.509Z,0
2016-11-21T02:25:03.511Z,0
2016-11-21T02:26:03.494Z,0
2016-11-21T02:27:03.497Z,0
2016-11-21T02:28:03.479Z,0
2016-11-21T02:29:03.479Z,0
2016-11-21T02:30:03.771Z,0
2016-11-21T02:31:03.448Z,0
2016-11-21T02:32:03.444Z,0
2016-11-21T02:33:03.436Z,0
2016-11-21T02:34:03.423Z,0
2016-11-21T02:35:03.422Z,0
2016-11-21T02:36:03.406Z,0
2016-11-21T02:37:03.399Z,0
2016-11-21T02:38:03.388Z,0
2016-11-21T02:39:03.382Z,0
2016-11-21T02:40:03.375Z,0
2016-11-21T02:41:03.354Z,0
2016-11-21T02:42:03.382Z,0
2016-11-21T02:43:03.347Z,0
2016-11-21T02:44:03.343Z,0
2016-11-21T02:45:03.320Z,0
2016-11-21T02:46:03.311Z,0
2016-11-21T02:47:03.310Z,0
2016-11-21T02:48:03.309Z,0
2016-11-21T02:49:03.282Z,0
2016-11-21T02:50:03.275Z,0
2016-11-21T02:51:03.281Z,0
2016-11-21T02:52:03.268Z,0
2016-11-21T02:53:03.258Z,0
2016-11-21T02:54:03.250Z,0
2016-11-21T02:55:03.233Z,0
2016-11-21T02:56:03.226Z,0
2016-11-21T02:57:03.225Z,0
2016-11-21T02:58:03.206Z,0
2016-11-21T02:59:03.193Z,0
2016-11-21T03:00:03.193Z,0
2016-11-21T03:01:03.180Z,0
2016-11-21T03:02:03.170Z,0
2016-11-21T03:03:03.163Z,0
2016-11-21T03:04:03.454Z,0
2016-11-21T03:05:03.136Z,0
2016-11-21T03:06:03.138Z,0
2016-11-21T03:07:03.132Z,0
2016-11-21T03:08:03.109Z,0
2016-11-21T03:09:03.103Z,0
2016-11-21T03:10:03.102Z,0
2016-11-21T03:11:03.089Z,0
2016-11-21T03:12:03.077Z,0
2016-11-21T03:13:03.070Z,0
2016-11-21T03:14:03.056Z,0
2016-11-21T03:15:03.050Z,0
2016-11-21T03:16:03.036Z,0
2016-11-21T03:17:03.030Z,0
2016-11-21T03:18:03.020Z,0
2016-11-21T03:19:03.011Z,0
2016-11-21T03:20:02.997Z,0
2016-11-21T03:21:02.990Z,0
2016-11-21T03:22:02.978Z,0
2016-11-21T03:23:02.974Z,0
2016-11-21T03:24:02.972Z,0
2016-11-21T03:25:02.952Z,0
2016-11-21T03:26:02.944Z,0
2016-11-21T03:27:02.929Z,0
2016-11-21T03:28:02.919Z,0
2016-11-21T03:29:03.219Z,0
2016-11-21T03:30:02.909Z,0
2016-11-21T03:31:02.921Z,0
2016-11-21T03:32:03.192Z,0
2016-11-21T03:33:02.876Z,0
2016-11-21T03:34:02.867Z,0
2016-11-21T03:35:02.861Z,0
2016-11-21T03:36:02.844Z,0
2016-11-21T03:37:02.839Z,0
2016-11-21T03:38:02.855Z,0
2016-11-21T03:39:02.814Z,0
2016-11-21T03:40:03.126Z,0
2016-11-21T03:41:02.793Z,0
2016-11-21T03:42:02.786Z,0
2016-11-21T03:43:02.779Z,0
2016-11-21T03:44:02.799Z,0
2016-11-21T03:45:02.759Z,0
2016-11-21T03:46:02.790Z,0
2016-11-21T03:47:02.753Z,0
2016-11-21T03:48:02.735Z,0
2016-11-21T03:49:02.724Z,0
2016-11-21T03:50:02.713Z,0
2016-11-21T03:51:02.705Z,0
2016-11-21T03:52:02.696Z,0
2016-11-21T03:53:02.686Z,0
2016-11-21T03:54:02.678Z,0
2016-11-21T03:55:02.669Z,0
2016-11-21T03:56:02.683Z,0
2016-11-21T03:57:02.644Z,0
2016-11-21T03:58:02.636Z,0
2016-11-21T03:59:02.616Z,0
2016-11-21T04:00:02.614Z,0
2016-11-21T04:01:02.603Z,0
2016-11-21T04:02:02.588Z,0
2016-11-21T04:03:02.588Z,0
2016-11-21T04:04:02.607Z,0
2016-11-21T04:05:02.566Z,0
2016-11-21T04:06:02.560Z,0
2016-11-21T04:07:02.547Z,0
2016-11-21T04:08:02.538Z,0
2016-11-21T04:09:02.531Z,0
2016-11-21T04:10:02.514Z,0
2016-11-21T04:11:02.504Z,0
2016-11-21T04:12:02.498Z,0
2016-11-21T04:13:02.483Z,0
2016-11-21T04:14:02.472Z,0
2016-11-21T04:15:02.469Z,0
2016-11-21T04:16:02.456Z,0
2016-11-21T04:17:02.447Z,0
2016-11-21T04:18:02.443Z,0
2016-11-21T04:19:02.424Z,0
2016-11-21T04:20:02.416Z,0
2016-11-21T04:21:02.712Z,0
2016-11-21T04:22:02.403Z,0
2016-11-21T04:23:02.388Z,0
2016-11-21T04:24:02.373Z,0
2016-11-21T04:25:02.370Z,0
2016-11-21T04:26:02.355Z,0
2016-11-21T04:27:02.343Z,0
2016-11-21T04:28:02.360Z,0
2016-11-21T04:29:02.352Z,0
2016-11-21T04:30:02.310Z,0
2016-11-21T04:31:02.307Z,0
2016-11-21T04:32:02.313Z,0
2016-11-21T04:33:02.293Z,0
2016-11-21T04:34:02.283Z,0
2016-11-21T04:35:02.297Z,0
2016-11-21T04:36:02.255Z,0
2016-11-21T04:37:02.248Z,0
2016-11-21T04:38:02.237Z,0
2016-11-21T04:39:02.226Z,0
2016-11-21T04:40:02.215Z,0
2016-11-21T04:41:02.206Z,0
2016-11-21T04:42:02.200Z,0
2016-11-21T04:43:02.485Z,0
2016-11-21T04:44:02.172Z,0
2016-11-21T04:45:02.161Z,0
2016-11-21T04:46:02.156Z,0
2016-11-21T04:47:02.144Z,0
2016-11-21T04:48:02.161Z,0
2016-11-21T04:49:02.126Z,0
2016-11-21T04:50:02.115Z,0
2016-11-21T04:51:02.112Z,0
2016-11-21T04:52:02.090Z,0
2016-11-21T04:53:02.086Z,0
2016-11-21T04:54:02.065Z,0
2016-11-21T04:55:02.060Z,0
2016-11-21T04:56:02.054Z,0
2016-11-21T04:57:02.035Z,0
2016-11-21T04:58:02.027Z,0
2016-11-21T04:59:02.014Z,0
2016-11-21T05:00:02.008Z,0
2016-11-21T05:01:01.997Z,0
2016-11-21T05:02:01.996Z,0
2016-11-21T05:03:01.970Z,0
2016-11-21T05:04:01.972Z,0
2016-11-21T05:05:01.950Z,0
2016-11-21T05:06:01.951Z,0
2016-11-21T05:07:01.939Z,0
2016-11-21T05:08:01.934Z,0
2016-11-21T05:09:01.916Z,0
2016-11-21T05:10:01.908Z,0
2016-11-21T05:11:01.920Z,0
2016-11-21T05:12:01.886Z,0
2016-11-21T05:13:01.870Z,0
2016-11-21T05:14:01.866Z,0
2016-11-21T05:15:01.852Z,0
2016-11-21T05:16:01.848Z,0
2016-11-21T05:17:01.831Z,0
2016-11-21T05:18:01.832Z,0
2016-11-21T05:19:01.811Z,0
2016-11-21T05:20:01.809Z,0
2016-11-21T05:21:01.797Z,0
2016-11-21T05:22:01.785Z,0
2016-11-21T05:23:01.775Z,0
2016-11-21T05:24:01.775Z,0
2016-11-21T05:25:01.751Z,0
2016-11-21T05:26:01.756Z,0
2016-11-21T05:27:01.731Z,0
2016-11-21T05:28:01.721Z,0
2016-11-21T05:29:01.706Z,0
2016-11-21T05:30:01.698Z,0
2016-11-21T05:31:01.693Z,0
2016-11-21T05:32:01.679Z,0
2016-11-21T05:33:01.670Z,0
2016-11-21T05:34:01.657Z,0
2016-11-21T05:35:01.650Z,0
2016-11-21T05:36:01.636Z,0
2016-11-21T05:37:01.624Z,0
2016-11-21T05:38:01.613Z,0
2016-11-21T05:39:01.645Z,0
2016-11-21T05:40:01.595Z,0
2016-11-21T05:41:01.588Z,0
2016-11-21T05:42:01.570Z,0
2016-11-21T05:43:01.565Z,0
2016-11-21T05:44:01.584Z,0
2016-11-21T05:45:01.539Z,0
2016-11-21T05:46:01.533Z,0
2016-11-21T05:47:01.527Z,0
2016-11-21T05:48:01.527Z,0
2016-11-21T05:49:01.500Z,0
2016-11-21T05:50:01.499Z,0
2016-11-21T05:51:01.483Z,0
2016-11-21T05:52:01.485Z,0
2016-11-21T05:53:01.462Z,0
2016-11-21T05:54:01.449Z,0
2016-11-21T05:55:01.750Z,0
2016-11-21T05:56:01.432Z,0
2016-11-21T05:57:01.416Z,0
2016-11-21T05:58:01.408Z,0
2016-11-21T05:59:01.424Z,0
2016-11-21T06:00:01.387Z,0
2016-11-21T06:01:01.372Z,0
2016-11-21T06:02:01.362Z,0
2016-11-21T06:03:01.353Z,0
2016-11-21T06:04:01.344Z,0
2016-11-21T06:05:01.330Z,0
2016-11-21T06:06:01.328Z,0
2016-11-21T06:07:01.610Z,0
2016-11-21T06:08:01.306Z,0
2016-11-21T06:09:01.293Z,0
2016-11-21T06:10:01.285Z,0
2016-11-21T06:11:01.271Z,0
2016-11-21T06:12:01.565Z,0
2016-11-21T06:13:01.274Z,0
2016-11-21T06:14:01.240Z,0
2016-11-21T06:15:01.228Z,0
2016-11-21T06:16:01.210Z,0
2016-11-21T06:17:01.209Z,0
2016-11-21T06:18:01.205Z,0
2016-11-21T06:19:01.495Z,0
2016-11-21T06:20:01.179Z,0
2016-11-21T06:21:01.162Z,0
2016-11-21T06:22:01.157Z,0
2016-11-21T06:23:01.148Z,0
2016-11-21T06:24:01.441Z,0
2016-11-21T06:25:01.126Z,0
2016-11-21T06:26:01.116Z,0
2016-11-21T06:27:01.096Z,0
2016-11-21T06:28:01.090Z,5
2016-11-21T06:29:01.076Z,5
2016-11-21T06:30:01.064Z,5
2016-11-21T06:31:01.057Z,5
2016-11-21T06:32:01.049Z,10
2016-11-21T06:33:01.360Z,10
2016-11-21T06:34:01.028Z,10
2016-11-21T06:35:01.015Z,15
2016-11-21T06:36:01.007Z,15
2016-11-21T06:37:00.992Z,15
2016-11-21T06:38:00.984Z,15
2016-11-21T06:39:01.291Z,15
2016-11-21T06:40:00.961Z,20
2016-11-21T06:41:01.261Z,20
2016-11-21T06:42:00.942Z,20
2016-11-21T06:43:00.932Z,20
2016-11-21T06:44:00.917Z,25
2016-11-21T06:45:00.906Z,25
2016-11-21T06:46:00.903Z,25
2016-11-21T06:47:00.890Z,30
2016-11-21T06:48:00.872Z,30
2016-11-21T06:49:00.869Z,30
2016-11-21T06:50:00.871Z,35
2016-11-21T06:51:00.842Z,35
2016-11-21T06:52:00.832Z,35
2016-11-21T06:53:00.826Z,40
2016-11-21T06:54:00.820Z,40
2016-11-21T06:55:00.808Z,45
2016-11-21T06:56:00.805Z,45
2016-11-21T06:57:00.785Z,45
2016-11-21T06:58:00.769Z,50
2016-11-21T06:59:00.764Z,50
2016-11-21T07:00:00.754Z,55
2016-11-21T07:01:00.742Z,60
2016-11-21T07:02:00.738Z,65
2016-11-21T07:03:00.724Z,65
2016-11-21T07:04:00.702Z,70
2016-11-21T07:05:00.693Z,70
2016-11-21T07:06:00.990Z,80
2016-11-21T07:07:00.669Z,75
2016-11-21T07:08:00.659Z,75
2016-11-21T07:09:00.656Z,80
2016-11-21T07:10:00.674Z,80
2016-11-21T07:11:00.638Z,85
2016-11-21T07:12:00.629Z,85
2016-11-21T07:13:00.639Z,85
2016-11-21T07:14:00.603Z,85
2016-11-21T07:15:00.597Z,85
2016-11-21T07:16:00.597Z,90
2016-11-21T07:17:00.579Z,90
2016-11-21T07:18:00.574Z,95
2016-11-21T07:19:00.556Z,100
2016-11-21T07:20:00.862Z,105
2016-11-21T07:21:00.547Z,110
2016-11-21T07:22:00.518Z,110
2016-11-21T07:23:00.514Z,115
2016-11-21T07:24:00.527Z,120
2016-11-21T07:25:00.508Z,125
2016-11-21T07:26:00.492Z,130
2016-11-21T07:27:00.477Z,135
2016-11-21T07:28:00.468Z,135
2016-11-21T07:29:00.756Z,135
2016-11-21T07:30:00.447Z,140
2016-11-21T07:31:00.451Z,135
2016-11-21T07:32:00.429Z,135
2016-11-21T07:33:00.419Z,135
2016-11-21T07:34:00.408Z,135
2016-11-21T07:35:00.395Z,135
2016-11-21T07:36:00.423Z,130
2016-11-21T07:37:00.692Z,130
2016-11-21T07:38:00.364Z,130
2016-11-21T07:39:00.975Z,125
2016-11-21T07:40:00.356Z,125
2016-11-21T07:41:00.352Z,120
2016-11-21T07:42:00.334Z,120
2016-11-21T07:43:00.631Z,120
2016-11-21T07:44:00.306Z,125
2016-11-21T07:45:00.310Z,125
2016-11-21T07:46:00.289Z,125
2016-11-21T07:47:00.288Z,130
2016-11-21T07:48:00.283Z,130
2016-11-21T07:49:00.275Z,130
2016-11-21T07:50:00.266Z,130
2016-11-21T07:51:00.252Z,135
2016-11-21T07:52:00.245Z,135
2016-11-21T07:53:00.232Z,140
2016-11-21T07:54:00.230Z,145
2016-11-21T07:55:00.216Z,150
2016-11-21T07:56:00.517Z,160
2016-11-21T07:57:00.198Z,165
2016-11-21T07:58:00.188Z,165
2016-11-21T07:59:00.184Z,170
2016-11-21T08:00:00.178Z,175
2016-11-21T08:01:00.168Z,175
2016-11-21T08:02:00.152Z,175
2016-11-21T08:03:00.152Z,180
2016-11-21T08:04:00.139Z,185
2016-11-21T08:05:00.134Z,185
2016-11-21T08:06:00.128Z,185
2016-11-21T08:07:00.115Z,185
2016-11-21T08:08:25.764Z,185
2016-11-21T08:09:00.084Z,185
2016-11-21T08:10:00.381Z,180
2016-11-21T08:11:00.100Z,175
2016-11-21T08:12:00.054Z,175
2016-11-21T08:13:00.048Z,175
2016-11-21T08:14:00.041Z,175
2016-11-21T08:15:00.026Z,175
2016-11-21T08:16:00.039Z,175
2016-11-21T08:16:59.994Z,175
2016-11-21T08:18:00.030Z,175
2016-11-21T08:19:00.286Z,170
2016-11-21T08:19:59.972Z,165
2016-11-21T08:20:59.963Z,160
2016-11-21T08:21:59.959Z,160
2016-11-21T08:22:59.949Z,160
2016-11-21T08:23:59.967Z,160
2016-11-21T08:24:59.936Z,160
2016-11-21T08:25:59.926Z,160
2016-11-21T08:26:59.926Z,155
2016-11-21T08:27:59.917Z,155
2016-11-21T08:28:59.907Z,150
2016-11-21T08:29:59.911Z,150
2016-11-21T08:30:59.888Z,150
2016-11-21T08:31:59.889Z,150
2016-11-21T08:32:59.908Z,155
2016-11-21T08:33:59.873Z,160
2016-11-21T08:34:59.850Z,170
2016-11-21T08:35:59.858Z,175
2016-11-21T08:37:00.148Z,175
2016-11-21T08:37:59.851Z,175
2016-11-21T08:38:59.839Z,180
2016-11-21T08:39:59.845Z,190
2016-11-21T08:40:59.844Z,190
2016-11-21T08:41:59.803Z,190
2016-11-21T08:42:59.841Z,195
2016-11-21T08:43:59.821Z,195
2016-11-21T08:44:59.788Z,200
2016-11-21T08:45:59.788Z,200
2016-11-21T08:46:59.779Z,200
2016-11-21T08:47:59.773Z,195
2016-11-21T08:48:59.766Z,190
2016-11-21T08:49:59.755Z,190
2016-11-21T08:50:59.750Z,195
2016-11-21T08:51:59.729Z,200
2016-11-21T08:52:59.750Z,205
2016-11-21T08:53:59.726Z,210
2016-11-21T08:55:00.023Z,215
2016-11-21T08:55:59.718Z,220
2016-11-21T08:56:59.816Z,215
2016-11-21T08:57:59.692Z,215
2016-11-21T08:58:59.724Z,210
2016-11-21T08:59:59.691Z,205
2016-11-21T09:00:59.915Z,200
2016-11-21T09:01:59.674Z,195
2016-11-21T09:02:59.674Z,200
2016-11-21T09:03:59.655Z,200
2016-11-21T09:04:59.668Z,200
2016-11-21T09:05:59.646Z,200
2016-11-21T09:06:59.641Z,200
2016-11-21T09:07:59.932Z,205
2016-11-21T09:08:59.635Z,215
2016-11-21T09:09:59.624Z,225
2016-11-21T09:10:59.914Z,235
2016-11-21T09:11:59.600Z,245
2016-11-21T09:12:59.617Z,255
2016-11-21T09:13:59.599Z,260
2016-11-21T09:14:59.598Z,260
2016-11-21T09:15:59.582Z,250
2016-11-21T09:16:59.574Z,245
2016-11-21T09:17:59.558Z,240
2016-11-21T09:18:59.558Z,240
2016-11-21T09:19:59.552Z,245
2016-11-21T09:20:59.546Z,240
2016-11-21T09:21:59.541Z,245
2016-11-21T09:22:59.526Z,245
2016-11-21T09:23:59.530Z,245
2016-11-21T09:24:59.536Z,245
2016-11-21T09:25:59.518Z,240
2016-11-21T09:26:59.513Z,235
2016-11-21T09:27:59.508Z,230
2016-11-21T09:28:59.493Z,235
2016-11-21T09:29:59.490Z,235
2016-11-21T09:30:59.488Z,240
2016-11-21T09:31:59.475Z,245
2016-11-21T09:32:59.477Z,255
2016-11-21T09:33:59.462Z,255
2016-11-21T09:34:59.481Z,265
2016-11-21T09:35:59.457Z,265
2016-11-21T09:36:59.452Z,265
2016-11-21T09:37:59.440Z,260
2016-11-21T09:38:59.430Z,260
2016-11-21T09:39:59.422Z,255
2016-11-21T09:40:59.422Z,255
2016-11-21T09:41:59.416Z,255
2016-11-21T09:42:59.409Z,255
2016-11-21T09:43:59.402Z,255
2016-11-21T09:44:59.395Z,255
2016-11-21T09:45:59.383Z,255
2016-11-21T09:46:59.409Z,260
2016-11-21T09:47:59.383Z,260
2016-11-21T09:48:59.370Z,265
2016-11-21T09:49:59.372Z,270
2016-11-21T09:50:59.398Z,270
2016-11-21T09:51:59.358Z,275
2016-11-21T09:52:59.345Z,275
2016-11-21T09:53:59.345Z,270
2016-11-21T09:54:59.335Z,265
2016-11-21T09:55:59.328Z,265
2016-11-21T09:56:59.327Z,260
2016-11-21T09:57:59.325Z,260
2016-11-21T09:58:59.631Z,255
2016-11-21T09:59:59.305Z,260
2016-11-21T10:00:59.300Z,260
2016-11-21T10:01:59.294Z,260
2016-11-21T10:02:59.293Z,270
2016-11-21T10:03:59.294Z,265
2016-11-21T10:04:59.282Z,270
2016-11-21T10:05:59.284Z,275
2016-11-21T10:06:59.276Z,280
2016-11-21T10:07:59.272Z,280
2016-11-21T10:08:59.265Z,280
2016-11-21T10:09:59.257Z,275
2016-11-21T10:10:59.252Z,265
2016-11-21T10:11:59.238Z,260
2016-11-21T10:12:59.246Z,250
2016-11-21T10:13:59.530Z,240
2016-11-21T10:14:59.239Z,230
2016-11-21T10:15:59.240Z,220
2016-11-21T10:16:59.218Z,215
2016-11-21T10:17:59.209Z,215
2016-11-21T10:18:59.212Z,210
2016-11-21T10:19:59.202Z,210
2016-11-21T10:20:59.192Z,205
2016-11-21T10:21:59.191Z,205
2016-11-21T10:22:59.187Z,205
2016-11-21T10:23:59.176Z,200
2016-11-21T10:24:59.174Z,205
2016-11-21T10:25:59.172Z,205
2016-11-21T10:26:59.459Z,205
2016-11-21T10:27:59.155Z,210
2016-11-21T10:28:59.158Z,210
2016-11-21T10:30:18.369Z,205
2016-11-21T10:30:59.161Z,205
2016-11-21T10:31:59.457Z,200
2016-11-21T10:32:59.142Z,205
2016-11-21T10:33:59.140Z,195
2016-11-21T10:34:59.172Z,200
2016-11-21T10:35:59.451Z,200
2016-11-21T10:36:59.143Z,190
2016-11-21T10:37:59.173Z,190
2016-11-21T10:38:59.130Z,190
2016-11-21T10:39:59.129Z,185
2016-11-21T10:40:59.128Z,185
2016-11-21T10:41:59.119Z,185
2016-11-21T10:42:59.109Z,185
2016-11-21T10:43:59.106Z,180
2016-11-21T10:44:59.092Z,180
2016-11-21T10:45:59.111Z,180
2016-11-21T10:46:59.087Z,180
2016-11-21T10:47:59.083Z,180
2016-11-21T10:48:59.078Z,180
2016-11-21T10:49:59.070Z,175
2016-11-21T10:50:59.369Z,175
2016-11-21T10:51:59.061Z,170
2016-11-21T10:52:59.065Z,165
2016-11-21T10:53:59.042Z,165
2016-11-21T10:54:59.049Z,165
2016-11-21T10:55:59.033Z,170
2016-11-21T10:56:59.039Z,180
2016-11-21T10:57:59.021Z,190
2016-11-21T10:58:59.018Z,195
2016-11-21T10:59:59.015Z,200
2016-11-21T11:00:59.011Z,195
2016-11-21T11:01:59.000Z,195
2016-11-21T11:02:58.997Z,190
2016-11-21T11:03:58.991Z,190
2016-11-21T11:04:58.981Z,190
2016-11-21T11:05:58.989Z,190
2016-11-21T11:06:58.975Z,190
2016-11-21T11:07:59.301Z,190
2016-11-21T11:08:58.964Z,185
2016-11-21T11:09:58.959Z,185
2016-11-21T11:10:59.252Z,185
2016-11-21T11:11:58.944Z,190
2016-11-21T11:12:58.940Z,185
2016-11-21T11:13:58.929Z,190
2016-11-21T11:14:58.941Z,190
2016-11-21T11:15:58.923Z,190
2016-11-21T11:16:58.912Z,190
2016-11-21T11:17:58.906Z,190
2016-11-21T11:18:58.902Z,190
2016-11-21T11:19:58.891Z,190
2016-11-21T11:20:58.889Z,190
2016-11-21T11:21:58.884Z,195
2016-11-21T11:22:58.878Z,200
2016-11-21T11:23:58.867Z,200
2016-11-21T11:24:58.876Z,200
2016-11-21T11:25:58.871Z,200
2016-11-21T11:26:58.855Z,195
2016-11-21T11:27:58.852Z,195
2016-11-21T11:28:58.846Z,190
2016-11-21T11:29:58.839Z,190
2016-11-21T11:30:58.865Z,185
2016-11-21T11:31:58.825Z,185
2016-11-21T11:32:58.819Z,185
2016-11-21T11:33:58.820Z,180
2016-11-21T11:34:58.808Z,175
2016-11-21T11:35:58.812Z,175
2016-11-21T11:37:43.618Z,175
2016-11-21T11:37:58.801Z,170
2016-11-21T11:38:58.772Z,170
2016-11-21T11:39:58.761Z,175
2016-11-21T11:40:58.781Z,170
2016-11-21T11:41:58.777Z,165
2016-11-21T11:42:58.778Z,160
2016-11-21T11:43:58.776Z,165
2016-11-21T11:44:58.775Z,165
2016-11-21T11:45:58.753Z,165
2016-11-21T11:46:59.075Z,170
2016-11-21T11:47:58.756Z,170
2016-11-21T11:48:58.741Z,165
2016-11-21T11:49:59.040Z,165
2016-11-21T11:50:58.768Z,160
2016-11-21T11:51:59.032Z,160
2016-11-21T11:52:58.724Z,160
2016-11-21T11:53:58.720Z,160
2016-11-21T11:54:58.717Z,155
2016-11-21T11:55:58.700Z,150
2016-11-21T11:56:58.699Z,145
2016-11-21T11:57:58.722Z,140
2016-11-21T11:58:58.696Z,140
2016-11-21T11:59:58.682Z,135
2016-11-21T12:00:58.673Z,135
2016-11-21T12:01:58.666Z,130
2016-11-21T12:02:58.665Z,130
2016-11-21T12:03:58.664Z,125
2016-11-21T12:04:58.651Z,125
2016-11-21T12:05:58.966Z,130
2016-11-21T12:06:58.944Z,130
2016-11-21T12:07:58.644Z,135
2016-11-21T12:08:58.633Z,135
2016-11-21T12:09:58.634Z,135
2016-11-21T12:10:58.614Z,140
2016-11-21T12:11:58.615Z,140
2016-11-21T12:12:58.912Z,145
2016-11-21T12:13:58.633Z,140
2016-11-21T12:14:58.590Z,140
2016-11-21T12:15:58.601Z,145
2016-11-21T12:16:58.590Z,160
2016-11-21T12:17:58.577Z,175
2016-11-21T12:18:58.569Z,180
2016-11-21T12:19:58.567Z,180
2016-11-21T12:20:59.177Z,175
2016-11-21T12:21:58.558Z,175
2016-11-21T12:22:58.577Z,180
2016-11-21T12:23:58.546Z,190
2016-11-21T12:24:58.541Z,190
2016-11-21T12:25:58.528Z,190
2016-11-21T12:26:58.518Z,190
2016-11-21T12:27:58.518Z,185
2016-11-21T12:28:58.518Z,190
2016-11-21T12:29:58.820Z,200
2016-11-21T12:30:59.130Z,210
2016-11-21T12:31:58.493Z,205
2016-11-21T12:32:58.520Z,200
2016-11-21T12:33:58.482Z,190
2016-11-21T12:34:58.485Z,175
2016-11-21T12:35:58.469Z,165
2016-11-21T12:36:58.495Z,160
2016-11-21T12:37:58.461Z,155
2016-11-21T12:38:58.477Z,150
2016-11-21T12:39:58.455Z,150
2016-11-21T12:40:58.441Z,145
2016-11-21T12:41:58.479Z,145
2016-11-21T12:42:58.435Z,145
2016-11-21T12:43:58.421Z,150
2016-11-21T12:44:58.430Z,150
2016-11-21T12:45:58.419Z,155
2016-11-21T12:46:58.722Z,155
2016-11-21T12:47:58.715Z,160
2016-11-21T12:48:58.395Z,160
2016-11-21T12:49:58.424Z,160
2016-11-21T12:50:58.388Z,160
2016-11-21T12:51:58.386Z,165
2016-11-21T12:52:58.375Z,165
2016-11-21T12:53:58.379Z,165
2016-11-21T12:54:58.360Z,165
2016-11-21T12:55:58.360Z,170
2016-11-21T12:56:58.359Z,175
2016-11-21T12:57:58.353Z,180
2016-11-21T12:58:58.348Z,180
2016-11-21T12:59:58.348Z,175
2016-11-21T13:00:58.331Z,175
2016-11-21T13:01:58.351Z,170
2016-11-21T13:02:58.314Z,165
2016-11-21T13:03:58.324Z,165
2016-11-21T13:04:58.310Z,165
2016-11-21T13:05:58.305Z,165
2016-11-21T13:06:58.301Z,165
2016-11-21T13:07:58.299Z,160
2016-11-21T13:08:58.285Z,155
2016-11-21T13:09:58.301Z,155
2016-11-21T13:10:58.271Z,155
2016-11-21T13:11:58.266Z,150
2016-11-21T13:12:58.271Z,145
2016-11-21T13:13:58.254Z,145
2016-11-21T13:14:58.555Z,140
2016-11-21T13:15:58.249Z,135
2016-11-21T13:16:58.227Z,130
2016-11-21T13:17:58.541Z,125
2016-11-21T13:18:58.231Z,125
2016-11-21T13:19:58.223Z,120
2016-11-21T13:20:58.224Z,115
2016-11-21T13:21:58.214Z,115
2016-11-21T13:22:58.219Z,110
2016-11-21T13:23:58.196Z,110
2016-11-21T13:24:58.205Z,105
2016-11-21T13:25:58.184Z,105
2016-11-21T13:26:58.174Z,100
2016-11-21T13:27:58.167Z,100
2016-11-21T13:28:58.164Z,105
2016-11-21T13:29:58.171Z,105
2016-11-21T13:30:58.162Z,105
2016-11-21T13:31:58.459Z,105
2016-11-21T13:32:58.147Z,100
2016-11-21T13:33:58.141Z,100
2016-11-21T13:34:58.128Z,100
2016-11-21T13:35:58.129Z,100
2016-11-21T13:36:58.120Z,100
2016-11-21T13:37:58.121Z,100
2016-11-21T13:38:58.402Z,95
2016-11-21T13:39:58.100Z,95
2016-11-21T13:40:58.400Z,95
2016-11-21T13:41:58.086Z,95
2016-11-21T13:42:58.073Z,95
2016-11-21T13:43:58.098Z,95
2016-11-21T13:44:58.076Z,95
2016-11-21T13:45:58.062Z,90
2016-11-21T13:46:58.067Z,90
2016-11-21T13:47:58.046Z,90
2016-11-21T13:48:58.037Z,90
2016-11-21T13:49:58.355Z,90
2016-11-21T13:50:58.041Z,90
2016-11-21T13:51:58.021Z,90
2016-11-21T13:52:58.327Z,90
2016-11-21T13:53:58.012Z,85
2016-11-21T13:54:58.008Z,85
2016-11-21T13:55:58.303Z,85
2016-11-21T13:56:58.334Z,85
2016-11-21T13:57:58.017Z,85
2016-11-21T13:58:58.446Z,85
2016-11-21T13:59:57.977Z,85
2016-11-21T14:00:57.965Z,85
2016-11-21T14:01:57.963Z,85
2016-11-21T14:02:57.956Z,80
2016-11-21T14:03:58.000Z,80
2016-11-21T14:04:57.942Z,80
2016-11-21T14:05:57.937Z,80
2016-11-21T14:06:57.934Z,80
2016-11-21T14:07:57.921Z,75
2016-11-21T14:08:57.951Z,75
2016-11-21T14:09:57.903Z,75
2016-11-21T14:10:57.903Z,75
2016-11-21T14:11:58.210Z,75
2016-11-21T14:12:57.897Z,70
2016-11-21T14:13:57.883Z,70
2016-11-21T14:14:57.875Z,65
2016-11-21T14:15:58.172Z,65